Startpagina
METAR-TAF:

METAR-TAF

Vliegvelden :

Fort-de-France, Martinique

breedte: 14-36N, lengte: 061-00W, hoogte: 5 m

Actueel weer

Dit bericht is 9 minuten geleden gemaakt, om 23:00 UTC
Wind 9 kt uit het oosten
Temperatuur 26°C
Vochtigheid 74%
Druk 1014 hPa
Zicht 10 km of meer
Weinig wolken op 2600 ft

METAR: TFFF 212300Z AUTO 09009KT 9999 FEW026 26/21 Q1014 NOSIG

Tijdstip: 19:09 (23:09 UTC)

Verwachting

Dit bericht is 6 uur en het 9 minuten geleden gemaakt, om 17:00 UTC
Verwachting geldig van 21 om 18 UTC tot 22 om 18 UTC
Wind 14 kt uit het oosten
Zicht 10 km of meer
Verspreide wolken op 3500 ft
Kans 30% :
Tijdelijke
van 22 om 06 UTC tot 22 om 10 UTC
Zicht: 4000 m
Verspreide wolken op 1500 ft, Stapelwolken.
regenbuien
Kans 30% :
Tijdelijke
van 22 om 14 UTC tot 22 om 18 UTC
Gebroken wolken op 1200 ft, Cumulonimbus.
onweer, regen

TAF: TFFF 211700Z 2118/2218 10014KT 9999 SCT035 PROB30 TEMPO 2206/2210 4000 SHRA SCT015TCU PROB30 TEMPO 2214/2218 TSRA BKN012CB

Waarnemingen en weersverwachtingen van meer dan 4000 vliegvelden (METAR en TAF).

De beschikbare stations zijn de gele en rode punten op de kaart.

Ga met uw muis naar het station om de naam te zien.

Klik dan om waarnemingen en weersverwachtingen te zien.

kaart wijzigen: klik op de groene knoppen met een zwart kruis om in te zoomen, op de groene knop met een streepje om uit te zoomen of op de groene pijlen voor aangrenzende kaarten.


METAR-TAF: